Аэропорт
Астана (UACC)

 UACC / TSE
ЗЦ Центральная Азия
Астана (UACC)
Астана (UACC)
 51.02220, 71.46690  / 1165 ft

 UACC 201230Z 24007MPS 6000 -SN DRSN BKN015 M08/M10 Q1016 R22/450550 NOSIG RMK QFE730/0974
 TAF UACC 201114Z 2012/2112 23005MPS 5000 -SN SCT011 BKN050 TXM08/2012Z TNM15/2101Z TEMPO 2012/2017 24007MPS DRSN BKN011 TEMPO 2017/2103 3100 BR SCT004 BECMG 2106/2108 24003MPS
UACC_aip_1708
показать схемы
Название сценария Тип сценария Flight Simulator 9 Flight Simulator X Prepar3D v2 Prepar3D v3 Prepar3D v4 Prepar3D v5 xPlane
Лёгкий сценарий аэропорта г. Астаны бесплатный


2020 © VATRUS division (Privacy Policy)